LIBQ 
Monte Scuro Airport
Italy 
ICAOStatus
LIBQOperational
LatitudeLongitude
39° 19' 12" N16° 22' 47" E
39.32000016.380000
Local Time (DST+2)UTC (GMT+1)
04-20-2014 12:47 pm04-20-2014 10:47
Sunrise-SunsetLocalUTC
Begin Civil Twilight05:40 am03:40
Sunrise06:08 am04:08
Sunset07:38 pm17:38
End Civil Twilight08:06 pm18:06

Current Weather

METARObservedFlight Conditions

LIBQ 200955Z 23016KT CAVOK 09/02 Q1009

Sun, Apr 20, 2014 @ 09:55 UTC(Z)

(52 Minutes ago)

VFR

(Visual Flight Rules)

WindVisibilityCloudsConditions
230° at 16 knots (30 kph)
10 km or more
  • Clear skies
  • No significant weather
TemperaturesReadingsPrecipitation
Current Temp9°C (48°F)
Dewpoint2°C (36°F)
Humidity62%
Altimeter29.79"Hg
Sea Level Pressure1009mb
Field Elevation5643.04'
None Recorded

Additional weather within a 92.6km radius of LIBQ

Location METAR
LICA

47.6km S (195°)

57 minutes ago
LIBC

70.2km E (121°)

57 minutes ago
VFR VFR    MVFR MVFR    IFR IFR    LIFR LIFR    Unknown Unknown

Previous 24 hour Weather Graphs

  Loading...

CheckWX.com is intended as a tool to help pilots better visualize weather data.   It is not intended as a substitute for an official weather briefing obtained from a Flight Service Station.
CheckWX.com does not meet the FAA requirements for an official pre-flight weather briefing.   Therefore, it's important that pilots still call and obtain an official FSS pre-flight weather briefing.